Time;durP1;ratioP1;P1;durP2;ratioP2;P2;SDS_P1;SDS_P2;PMS_P1;PMS_P2;Temp;Humidity;BMP_temperature;BMP_pressure;BME280_temperature;BME280_humidity;BME280_pressure;Samples;Min_cycle;Max_cycle;Signal;HPM_P1;HPM_P2
2021/05/03 00:01:02;;;;;;;2.70;2.08;;;358.60;1612.80;;;;;;4978543;28;20473;-68
2021/05/03 00:03:28;;;;;;;3.28;2.50;;;358.60;1612.80;;;;;;4992686;28;20414;-70
2021/05/03 00:05:57;;;;;;;4.95;2.08;;;358.60;1638.40;;;;;;4990515;28;20027;-64
2021/05/03 00:08:26;;;;;;;3.63;2.70;;;358.60;1612.80;;;;;;4988486;28;20078;-69
2021/05/03 00:10:52;;;;;;;3.40;2.80;;;358.60;1638.40;;;;;;4992259;28;20042;-68
2021/05/03 00:13:19;;;;;;;5.30;2.47;;;358.60;1638.40;;;;;;4989325;28;20469;-71
2021/05/03 00:15:45;;;;;;;3.10;2.38;;;358.60;1638.40;;;;;;4978612;28;20474;-65
2021/05/03 00:18:11;;;;;;;2.47;2.28;;;358.50;1638.40;;;;;;4960982;28;20077;-68
2021/05/03 00:20:36;;;;;;;4.22;2.05;;;358.60;1638.40;;;;;;4974716;28;20397;-66
2021/05/03 00:23:03;;;;;;;2.45;2.08;;;358.60;1638.40;;;;;;4983611;28;20015;-68
2021/05/03 00:25:28;;;;;;;2.20;2.00;;;358.60;1638.40;;;;;;4982634;28;20088;-67
2021/05/03 00:27:54;;;;;;;4.20;2.10;;;358.60;1638.40;;;;;;4993303;28;20022;-66
2021/05/03 00:30:20;;;;;;;6.50;2.13;;;358.60;1638.40;;;;;;4988145;28;20082;-69
2021/05/03 00:32:47;;;;;;;3.55;2.03;;;358.60;1638.40;;;;;;4990729;28;20049;-73
2021/05/03 00:35:15;;;;;;;2.85;1.92;;;358.60;1638.40;;;;;;4989283;28;20116;-71
2021/05/03 00:37:41;;;;;;;1.80;1.63;;;358.60;1638.40;;;;;;4993525;28;20046;-71
2021/05/03 00:40:08;;;;;;;7.75;2.22;;;358.60;1638.40;;;;;;4989473;28;20053;-68
2021/05/03 00:42:34;;;;;;;2.60;2.00;;;358.60;1638.40;;;;;;4991589;28;20112;-66
2021/05/03 00:45:12;;;;;;;2.35;2.10;;;358.60;1638.40;;;;;;4986768;28;20027;-70
2021/05/03 00:47:39;;;;;;;2.80;2.03;;;358.70;1638.40;;;;;;4988117;28;20050;-65
2021/05/03 00:50:07;;;;;;;3.60;1.77;;;358.70;1638.40;;;;;;4989071;28;20050;-66
2021/05/03 00:52:33;;;;;;;2.75;2.15;;;358.70;1664.00;;;;;;4984199;28;20106;-72
2021/05/03 00:54:59;;;;;;;2.85;2.30;;;358.70;1638.40;;;;;;4988606;28;20026;-73
2021/05/03 00:57:25;;;;;;;3.70;2.25;;;358.70;1638.40;;;;;;4993360;28;20057;-68
2021/05/03 00:59:51;;;;;;;2.35;2.15;;;358.80;1638.40;;;;;;4992960;28;20042;-65
2021/05/03 01:02:17;;;;;;;2.25;1.98;;;358.80;1638.40;;;;;;4975161;28;20042;-66
2021/05/03 01:04:43;;;;;;;2.45;2.25;;;358.70;1638.40;;;;;;4993338;28;20030;-73
2021/05/03 01:07:09;;;;;;;2.88;2.47;;;358.80;1638.40;;;;;;4997283;28;20026;-67
2021/05/03 01:09:34;;;;;;;3.40;2.05;;;358.80;1638.40;;;;;;4997703;28;20034;-67
2021/05/03 01:12:01;;;;;;;4.13;2.28;;;358.80;1638.40;;;;;;4997670;28;20457;-66
2021/05/03 01:14:27;;;;;;;5.72;2.45;;;358.80;1638.40;;;;;;4996601;28;20030;-66
2021/05/03 01:16:53;;;;;;;2.22;2.03;;;358.80;1638.40;;;;;;4996631;28;20420;-65
2021/05/03 01:19:21;;;;;;;2.63;2.08;;;358.80;1638.40;;;;;;4996455;28;20034;-70
2021/05/03 01:21:48;;;;;;;3.47;2.80;;;358.80;1638.40;;;;;;4992059;28;20049;-69
2021/05/03 01:24:15;;;;;;;6.70;4.47;;;358.80;1638.40;;;;;;4996882;28;20026;-68
2021/05/03 01:26:41;;;;;;;8.05;5.60;;;358.80;1638.40;;;;;;4996440;28;20469;-73
2021/05/03 01:29:07;;;;;;;4.63;3.83;;;358.80;1638.40;;;;;;4996009;28;20490;-70
2021/05/03 01:31:33;;;;;;;3.70;3.20;;;358.80;1638.40;;;;;;4991598;28;20109;-66
2021/05/03 01:34:09;;;;;;;3.17;2.53;;;358.70;1664.00;;;;;;4996389;28;20117;-67
2021/05/03 01:36:43;;;;;;;3.10;2.42;;;358.80;1638.40;;;;;;4996790;28;20176;-67
2021/05/03 01:39:11;;;;;;;2.37;2.17;;;358.70;1638.40;;;;;;4995707;28;20110;-72
2021/05/03 01:41:37;;;;;;;2.50;2.05;;;358.70;1664.00;;;;;;4977777;28;20344;-68
2021/05/03 01:44:04;;;;;;;3.42;2.40;;;358.70;1664.00;;;;;;4995208;28;20070;-68
2021/05/03 01:46:32;;;;;;;2.70;2.15;;;358.60;1664.00;;;;;;4994395;28;20086;-68
2021/05/03 01:48:59;;;;;;;3.30;2.58;;;358.60;1664.00;;;;;;4983714;28;20488;-70
2021/05/03 01:51:25;;;;;;;2.33;2.13;;;358.60;1664.00;;;;;;4993699;28;20033;-70
2021/05/03 01:53:51;;;;;;;2.70;2.38;;;358.60;1664.00;;;;;;4990440;28;20085;-70
2021/05/03 01:56:17;;;;;;;2.53;2.33;;;358.60;1664.00;;;;;;4989157;28;20138;-69
2021/05/03 01:58:43;;;;;;;4.60;2.20;;;358.60;1664.00;;;;;;4994618;28;20027;-71
2021/05/03 02:01:09;;;;;;;3.00;2.30;;;358.60;1664.00;;;;;;4996026;28;20042;-69
2021/05/03 02:03:35;;;;;;;2.85;2.55;;;358.60;1664.00;;;;;;4994605;28;20113;-73
2021/05/03 02:06:02;;;;;;;3.10;2.67;;;358.60;1664.00;;;;;;4995360;28;20029;-66
2021/05/03 02:08:28;;;;;;;3.38;2.47;;;358.70;1664.00;;;;;;4995489;28;20033;-71
2021/05/03 02:10:54;;;;;;;5.70;3.33;;;358.60;1664.00;;;;;;4989556;28;20036;-71
2021/05/03 02:13:22;;;;;;;3.88;3.00;;;358.50;1689.60;;;;;;4995538;28;20086;-68
2021/05/03 02:15:48;;;;;;;3.30;2.60;;;358.50;1689.60;;;;;;4986223;28;20049;-73
2021/05/03 02:18:15;;;;;;;5.43;3.00;;;358.40;1689.60;;;;;;4994537;28;20022;-66
2021/05/03 02:20:42;;;;;;;3.45;2.90;;;358.40;1689.60;;;;;;4962463;28;20045;-71
2021/05/03 02:23:07;;;;;;;5.30;3.30;;;358.40;1689.60;;;;;;4995998;28;20097;-72
2021/05/03 02:25:33;;;;;;;5.88;2.90;;;358.40;1689.60;;;;;;4995722;28;20523;-71
2021/05/03 02:27:59;;;;;;;4.57;2.95;;;358.40;1689.60;;;;;;4995801;28;20436;-71
2021/05/03 02:30:26;;;;;;;4.68;3.03;;;358.40;1689.60;;;;;;4995590;28;20039;-72
2021/05/03 02:32:53;;;;;;;3.10;2.75;;;358.40;1689.60;;;;;;4995845;28;20023;-66
2021/05/03 02:35:21;;;;;;;2.92;2.63;;;358.40;1689.60;;;;;;4992713;28;20026;-67
2021/05/03 02:37:50;;;;;;;3.58;3.03;;;358.40;1689.60;;;;;;4992724;28;20088;-72
2021/05/03 02:40:20;;;;;;;3.30;2.70;;;358.40;1689.60;;;;;;4995070;28;20113;-66
2021/05/03 02:42:48;;;;;;;3.15;2.67;;;358.40;1689.60;;;;;;4989213;28;20043;-70
2021/05/03 02:45:14;;;;;;;3.35;3.05;;;358.40;1689.60;;;;;;4975425;28;20489;-65
2021/05/03 02:47:40;;;;;;;2.83;2.53;;;358.40;1689.60;;;;;;4961006;28;20055;-71
2021/05/03 02:50:08;;;;;;;4.57;3.63;;;358.40;1689.60;;;;;;4968293;28;20134;-68
2021/05/03 02:52:34;;;;;;;3.78;3.15;;;358.40;1689.60;;;;;;4975766;28;20027;-67
2021/05/03 02:54:59;;;;;;;3.28;2.97;;;358.40;1689.60;;;;;;4975381;28;20030;-68
2021/05/03 02:57:25;;;;;;;5.13;3.08;;;358.40;1689.60;;;;;;4975429;28;20424;-72
2021/05/03 02:59:51;;;;;;;5.25;3.58;;;358.40;1715.20;;;;;;4958024;28;20037;-68
2021/05/03 03:02:17;;;;;;;3.70;2.83;;;358.40;1689.60;;;;;;4976169;28;20022;-70
2021/05/03 03:04:43;;;;;;;3.53;2.90;;;358.40;1689.60;;;;;;4975140;28;20030;-70
2021/05/03 03:07:08;;;;;;;3.17;2.83;;;358.40;1689.60;;;;;;4975713;28;20019;-68
2021/05/03 03:09:34;;;;;;;3.03;2.60;;;358.40;1689.60;;;;;;4975360;28;20034;-68
2021/05/03 03:12:00;;;;;;;3.28;2.97;;;358.40;1689.60;;;;;;4975947;28;20401;-68
2021/05/03 03:14:26;;;;;;;3.30;2.75;;;358.40;1689.60;;;;;;4975762;28;20033;-68
2021/05/03 03:16:52;;;;;;;3.40;3.10;;;358.40;1689.60;;;;;;4975552;28;20481;-67
2021/05/03 03:19:18;;;;;;;15.55;3.35;;;358.40;1689.60;;;;;;4975419;28;20031;-68
2021/05/03 03:21:44;;;;;;;3.35;3.05;;;333.70;1715.20;;;;;;4975411;28;20027;-68
2021/05/03 03:24:10;;;;;;;4.15;2.85;;;333.70;1715.20;;;;;;4975555;28;20027;-67
2021/05/03 03:26:36;;;;;;;3.55;2.97;;;333.70;1715.20;;;;;;4975430;28;20023;-68
2021/05/03 03:29:03;;;;;;;4.30;3.15;;;333.70;1715.20;;;;;;4975321;28;20100;-68
2021/05/03 03:31:29;;;;;;;4.25;2.85;;;333.70;1715.20;;;;;;4975304;28;20031;-66
2021/05/03 03:33:54;;;;;;;5.10;3.13;;;333.60;1715.20;;;;;;4975383;28;20080;-67
2021/05/03 03:36:20;;;;;;;3.72;2.97;;;333.60;1715.20;;;;;;4975265;28;20029;-67
2021/05/03 03:38:46;;;;;;;3.55;3.25;;;333.60;1715.20;;;;;;4975296;28;20042;-67
2021/05/03 03:41:11;;;;;;;3.13;2.83;;;333.60;1715.20;;;;;;4975191;28;20354;-66
2021/05/03 03:43:38;;;;;;;3.67;3.17;;;333.60;1715.20;;;;;;4975245;28;20077;-67
2021/05/03 03:46:03;;;;;;;3.63;3.30;;;333.60;1715.20;;;;;;4976643;28;20027;-70
2021/05/03 03:48:29;;;;;;;3.63;2.95;;;333.60;1715.20;;;;;;4994654;28;20018;-67
2021/05/03 03:50:55;;;;;;;3.97;3.20;;;333.60;1715.20;;;;;;4994561;28;20034;-66
2021/05/03 03:53:21;;;;;;;3.40;3.05;;;333.60;1715.20;;;;;;4994536;28;20457;-69
2021/05/03 03:55:46;;;;;;;4.47;3.80;;;333.60;1715.20;;;;;;4994558;28;20062;-67
2021/05/03 03:58:12;;;;;;;5.95;3.05;;;333.60;1715.20;;;;;;4994176;28;20085;-67
2021/05/03 04:00:38;;;;;;;6.18;3.80;;;333.50;1715.20;;;;;;4991552;28;20432;-71
2021/05/03 04:03:09;;;;;;;4.70;3.45;;;333.50;1715.20;;;;;;4994055;28;20023;-68
2021/05/03 04:08:27;;;;;;;4.57;3.90;;;333.50;1715.20;;;;;;4994480;28;20025;-68
2021/05/03 04:21:54;;;;;;;4.00;3.57;;;333.40;1715.20;;;;;;4915271;29;20039;-66
2021/05/03 04:26:48;;;;;;;3.60;3.30;;;333.30;1715.20;;;;;;4915204;29;20483;-66
2021/05/03 04:29:13;;;;;;;4.10;3.03;;;333.30;1715.20;;;;;;4915592;29;20063;-68
2021/05/03 04:31:39;;;;;;;4.07;3.67;;;333.30;1740.80;;;;;;4915183;29;20106;-69
2021/05/03 04:34:05;;;;;;;3.80;3.47;;;333.30;1740.80;;;;;;4915180;29;20483;-67
2021/05/03 04:36:30;;;;;;;9.10;4.07;;;333.30;1740.80;;;;;;4915048;29;20024;-69
2021/05/03 04:38:56;;;;;;;6.22;3.67;;;333.30;1740.80;;;;;;4915544;29;20506;-69
2021/05/03 04:41:22;;;;;;;5.85;5.30;;;333.30;1740.80;;;;;;4918227;29;20079;-69
2021/05/03 04:43:48;;;;;;;6.10;5.50;;;333.30;1740.80;;;;;;4918424;29;20225;-69
2021/05/03 04:46:16;;;;;;;6.13;5.53;;;333.40;1740.80;;;;;;4918683;29;20052;-69
2021/05/03 04:48:42;;;;;;;7.78;7.00;;;333.40;1740.80;;;;;;4918241;29;20095;-69
2021/05/03 04:51:08;;;;;;;5.85;5.30;;;333.50;1740.80;;;;;;4977767;28;20035;-69
2021/05/03 04:53:34;;;;;;;7.40;5.15;;;333.50;1740.80;;;;;;4997793;28;20033;-69
2021/05/03 04:56:00;;;;;;;11.15;9.50;;;333.60;1740.80;;;;;;4980192;28;20548;-69
2021/05/03 04:58:26;;;;;;;19.73;7.95;;;333.60;1715.20;;;;;;4997365;28;20109;-69
2021/05/03 05:00:52;;;;;;;10.50;8.30;;;333.60;1715.20;;;;;;4997586;28;20105;-70
2021/05/03 05:03:17;;;;;;;7.00;6.38;;;358.40;1715.20;;;;;;4979908;28;20057;-69
2021/05/03 05:05:46;;;;;;;7.95;7.10;;;358.40;1715.20;;;;;;4997423;28;20033;-69
2021/05/03 05:08:12;;;;;;;6.30;5.53;;;358.40;1689.60;;;;;;4997502;28;20112;-86
2021/05/03 05:10:38;;;;;;;14.52;5.30;;;358.40;1689.60;;;;;;4997349;28;20540;-69
2021/05/03 05:13:03;;;;;;;18.70;5.60;;;358.50;1689.60;;;;;;4996936;28;20026;-68
2021/05/03 05:15:29;;;;;;;14.48;5.10;;;358.50;1689.60;;;;;;4997136;28;20030;-74
2021/05/03 05:17:55;;;;;;;14.73;5.40;;;358.60;1689.60;;;;;;4997312;28;20097;-82
2021/05/03 05:20:21;;;;;;;13.13;5.13;;;358.60;1664.00;;;;;;4996936;28;20050;-69
2021/05/03 05:22:47;;;;;;;11.10;5.55;;;358.60;1664.00;;;;;;4997305;28;20038;-70
2021/05/03 05:25:13;;;;;;;8.40;5.63;;;358.70;1664.00;;;;;;4979590;28;20062;-66
2021/05/03 05:27:39;;;;;;;12.18;5.60;;;358.80;1638.40;;;;;;4997198;28;20019;-71
2021/05/03 05:30:06;;;;;;;10.38;6.25;;;358.90;1638.40;;;;;;4997155;28;20034;-65
2021/05/03 05:32:34;;;;;;;11.60;6.30;;;358.90;1638.40;;;;;;4997003;28;20097;-65
2021/05/03 05:35:00;;;;;;;10.82;7.35;;;358.90;1612.80;;;;;;4996792;28;20061;-71
2021/05/03 05:37:26;;;;;;;9.40;7.03;;;359.00;1612.80;;;;;;4996416;28;20042;-69
2021/05/03 05:39:52;;;;;;;12.65;7.35;;;359.10;1612.80;;;;;;4989559;28;20058;-70
2021/05/03 05:42:17;;;;;;;12.05;6.82;;;359.10;1612.80;;;;;;4990594;28;20031;-66
2021/05/03 05:44:43;;;;;;;7.82;6.32;;;359.20;1612.80;;;;;;4978871;28;20039;-71
2021/05/03 05:47:09;;;;;;;7.93;5.55;;;359.30;1587.20;;;;;;4996382;28;20043;-71
2021/05/03 05:49:34;;;;;;;9.52;6.13;;;359.30;1587.20;;;;;;4996307;28;20030;-70
2021/05/03 05:52:00;;;;;;;12.38;6.00;;;384.00;1587.20;;;;;;4995627;28;20030;-69
2021/05/03 05:54:26;;;;;;;6.53;5.70;;;384.00;1561.60;;;;;;4996466;28;20499;-70
2021/05/03 05:56:54;;;;;;;9.32;5.68;;;359.30;1561.60;;;;;;4996526;28;20467;-70
2021/05/03 05:59:22;;;;;;;7.70;6.30;;;359.30;1536.00;;;;;;4996648;28;20030;-71
2021/05/03 06:01:48;;;;;;;7.47;6.60;;;359.30;1561.60;;;;;;4996467;28;20128;-68
2021/05/03 06:04:13;;;;;;;11.13;7.70;;;359.30;1536.00;;;;;;4992249;28;20516;-69
2021/05/03 06:06:39;;;;;;;17.23;8.80;;;359.30;1536.00;;;;;;4990895;28;20054;-71
2021/05/03 06:09:05;;;;;;;12.05;7.65;;;384.00;1561.60;;;;;;4996598;28;20050;-72
2021/05/03 06:11:31;;;;;;;12.02;6.68;;;384.10;1536.00;;;;;;4996303;28;20038;-72
2021/05/03 06:13:56;;;;;;;16.67;7.65;;;384.20;1536.00;;;;;;4996236;28;20037;-71
2021/05/03 06:16:22;;;;;;;11.60;7.25;;;384.30;1536.00;;;;;;4996067;28;20389;-72
2021/05/03 06:18:48;;;;;;;9.07;6.45;;;384.50;1510.40;;;;;;4995491;28;20496;-73
2021/05/03 06:21:14;;;;;;;10.98;6.55;;;384.70;1484.80;;;;;;4995987;28;20034;-72
2021/05/03 06:23:40;;;;;;;8.75;6.10;;;384.80;1459.20;;;;;;4995647;28;20026;-73
2021/05/03 06:26:05;;;;;;;7.53;5.60;;;384.90;1433.60;;;;;;4996226;28;20037;-73
2021/05/03 06:28:31;;;;;;;6.15;5.55;;;409.70;1433.60;;;;;;4982666;28;20034;-72
2021/05/03 06:30:58;;;;;;;7.50;5.20;;;409.80;1433.60;;;;;;4981531;28;20457;-72
2021/05/03 06:33:24;;;;;;;7.22;6.07;;;410.00;1408.00;;;;;;4984785;28;20019;-73
2021/05/03 06:35:50;;;;;;;8.27;5.88;;;410.30;1382.40;;;;;;4976466;28;20038;-73
2021/05/03 06:38:17;;;;;;;13.27;5.95;;;410.40;1356.80;;;;;;4976139;28;20046;-74
2021/05/03 06:40:42;;;;;;;147.10;15.40;;;435.30;1356.80;;;;;;4958424;28;20034;-73
2021/05/03 06:43:08;;;;;;;51.60;8.02;;;435.60;1331.20;;;;;;4976125;28;20366;-73
2021/05/03 06:45:34;;;;;;;8.43;5.25;;;435.80;1280.00;;;;;;4976289;28;20026;-74
2021/05/03 06:48:05;;;;;;;7.22;5.38;;;436.00;1254.40;;;;;;4975485;28;20769;-72
2021/05/03 06:50:31;;;;;;;14.80;6.07;;;460.80;1254.40;;;;;;4975737;28;20051;-73
2021/05/03 06:52:57;;;;;;;43.80;7.78;;;461.00;1228.80;;;;;;4976210;28;20037;-72
2021/05/03 06:55:23;;;;;;;10.90;5.57;;;461.20;1203.20;;;;;;4975914;28;20417;-72
2021/05/03 06:57:48;;;;;;;13.10;5.28;;;461.30;1152.00;;;;;;4976215;28;20023;-73
2021/05/03 07:00:15;;;;;;;7.68;6.22;;;461.60;1126.40;;;;;;4975826;28;20038;-71
2021/05/03 07:02:43;;;;;;;9.10;6.80;;;461.60;1075.20;;;;;;4975694;28;20073;-74
2021/05/03 07:05:10;;;;;;;12.20;6.60;;;486.50;1075.20;;;;;;4976328;28;20085;-73
2021/05/03 07:07:36;;;;;;;10.20;7.25;;;486.60;1049.60;;;;;;4975260;28;20107;-73
2021/05/03 07:10:03;;;;;;;13.48;7.68;;;486.70;1049.60;;;;;;4975598;28;20039;-74
2021/05/03 07:12:29;;;;;;;8.05;5.65;;;486.80;1049.60;;;;;;4975687;28;20022;-73
2021/05/03 07:14:55;;;;;;;12.35;5.30;;;486.90;1024.00;;;;;;4975825;28;20038;-73
2021/05/03 07:17:21;;;;;;;16.90;7.97;;;487.20;1024.00;;;;;;4975510;28;20465;-72
2021/05/03 07:19:46;;;;;;;39.78;8.35;;;512.00;1049.60;;;;;;4975550;28;20050;-74
2021/05/03 07:22:13;;;;;;;11.90;6.80;;;512.10;1024.00;;;;;;4975494;28;20023;-73
2021/05/03 07:24:41;;;;;;;6.32;5.30;;;512.00;998.40;;;;;;4975608;28;20406;-72
2021/05/03 07:27:08;;;;;;;50.47;14.77;;;512.00;972.80;;;;;;4975226;28;20058;-73
2021/05/03 07:29:34;;;;;;;31.95;10.23;;;512.00;1049.60;;;;;;4957848;28;20058;-78
2021/05/03 07:32:00;;;;;;;10.23;6.43;;;512.00;1024.00;;;;;;4975361;28;20046;-77
2021/05/03 07:34:26;;;;;;;10.95;6.10;;;512.20;998.40;;;;;;4975346;28;20061;-78
2021/05/03 07:36:51;;;;;;;8.18;6.43;;;512.20;972.80;;;;;;4975033;28;20078;-78
2021/05/03 07:39:17;;;;;;;9.93;6.97;;;512.30;972.80;;;;;;4957522;28;20027;-76
2021/05/03 07:41:43;;;;;;;6.93;5.18;;;512.50;947.20;;;;;;4975088;28;20093;-77
2021/05/03 07:44:09;;;;;;;7.45;5.68;;;512.50;947.20;;;;;;4975395;28;20111;-78
2021/05/03 07:46:37;;;;;;;7.93;6.10;;;512.60;947.20;;;;;;4975055;28;20489;-74
2021/05/03 07:49:03;;;;;;;9.63;5.53;;;512.60;921.60;;;;;;4973698;28;20130;-74
2021/05/03 07:51:29;;;;;;;10.50;6.03;;;512.50;921.60;;;;;;4975052;28;20126;-74
2021/05/03 07:53:56;;;;;;;9.35;5.72;;;512.60;896.00;;;;;;4975137;28;20513;-73
2021/05/03 07:56:22;;;;;;;7.95;5.38;;;512.60;896.00;;;;;;4975045;28;20031;-74
2021/05/03 07:58:48;;;;;;;8.20;5.55;;;512.60;921.60;;;;;;4957664;28;20115;-75
2021/05/03 08:01:15;;;;;;;11.68;5.28;;;512.50;896.00;;;;;;4974990;28;20027;-74
2021/05/03 08:03:54;;;;;;;10.55;5.05;;;512.30;896.00;;;;;;5235459;23;20081;-75
2021/05/03 08:06:20;;;;;;;38.95;7.22;;;512.10;921.60;;;;;;4992188;28;20077;-74
2021/05/03 08:08:47;;;;;;;15.68;4.07;;;512.00;921.60;;;;;;4994388;28;20459;-74
2021/05/03 08:11:15;;;;;;;9.85;3.60;;;487.20;896.00;;;;;;4994495;28;20041;-73
2021/05/03 08:13:43;;;;;;;8.45;3.72;;;486.90;870.40;;;;;;4994552;28;20019;-74
2021/05/03 08:16:13;;;;;;;10.30;4.03;;;486.80;896.00;;;;;;4993577;28;20034;-70
2021/05/03 08:18:40;;;;;;;5.97;3.63;;;486.70;896.00;;;;;;4994222;28;20113;-70
2021/05/03 08:21:07;;;;;;;6.43;4.03;;;486.50;921.60;;;;;;4993965;28;20073;-72
2021/05/03 08:23:33;;;;;;;8.98;4.70;;;486.40;921.60;;;;;;4993850;28;20101;-70
2021/05/03 08:25:59;;;;;;;17.67;4.82;;;486.40;921.60;;;;;;4993960;28;20033;-67
2021/05/03 08:28:25;;;;;;;7.82;5.10;;;461.70;921.60;;;;;;4993783;28;20031;-64
2021/05/03 08:30:52;;;;;;;8.13;5.57;;;461.60;921.60;;;;;;4993773;28;20042;-72
2021/05/03 08:33:19;;;;;;;113.85;13.85;;;461.60;921.60;;;;;;4975763;28;20034;-72
2021/05/03 08:35:46;;;;;;;44.92;16.00;;;486.40;998.40;;;;;;4992035;28;20069;-72
2021/05/03 08:38:14;;;;;;;16.25;7.55;;;486.40;947.20;;;;;;4994117;28;20391;-72
2021/05/03 08:40:40;;;;;;;12.52;7.65;;;461.70;947.20;;;;;;4994436;28;20079;-72
2021/05/03 08:43:06;;;;;;;10.15;5.47;;;461.70;921.60;;;;;;4993952;28;20042;-70
2021/05/03 08:45:33;;;;;;;8.13;5.45;;;461.60;921.60;;;;;;4999632;28;20084;-70
2021/05/03 08:53:56;;;;;;;32.72;5.85;;;461.30;921.60;;;;;;5002361;28;20065;-72
2021/05/03 08:56:11;;;;;;;10.90;5.15;;;461.20;947.20;;;;;;5000045;28;20064;-64
2021/05/03 08:58:39;;;;;;;11.30;5.97;;;461.10;972.80;;;;;;4999417;28;20054;-65
2021/05/03 09:01:05;;;;;;;14.60;6.90;;;461.00;972.80;;;;;;5001867;28;20022;-74
2021/05/03 09:03:33;;;;;;;15.00;7.15;;;461.00;998.40;;;;;;5000850;28;20081;-75
2021/05/03 09:06:04;;;;;;;8.57;6.32;;;460.90;998.40;;;;;;5003394;28;20042;-70
2021/05/03 09:08:31;;;;;;;14.82;6.40;;;460.90;1024.00;;;;;;5003425;28;20026;-71
2021/05/03 09:10:58;;;;;;;8.98;4.72;;;460.80;1024.00;;;;;;5003295;28;20037;-73
2021/05/03 09:13:28;;;;;;;12.48;6.22;;;460.80;1024.00;;;;;;5003738;28;20030;-72
2021/05/03 09:16:17;;;;;;;7.10;4.78;;;460.80;1024.00;;;;;;5001269;28;20022;-74
2021/05/03 09:18:43;;;;;;;8.43;5.00;;;460.80;1024.00;;;;;;5002058;28;20041;-68
2021/05/03 09:21:29;;;;;;;17.38;6.45;;;460.80;1024.00;;;;;;5001492;28;20049;-76
2021/05/03 09:24:17;;;;;;;7.05;4.80;;;460.80;1024.00;;;;;;5007962;28;20032;-77
2021/05/03 09:27:03;;;;;;;9.27;5.75;;;460.80;1024.00;;;;;;5015160;28;20445;-77
2021/05/03 09:29:37;;;;;;;10.02;5.45;;;460.80;1024.00;;;;;;5016972;28;20054;-71
2021/05/03 09:32:05;;;;;;;7.50;5.30;;;460.80;998.40;;;;;;5017090;28;20030;-67
2021/05/03 09:34:36;;;;;;;9.55;5.75;;;460.80;998.40;;;;;;5016329;28;20030;-67
2021/05/03 09:37:23;;;;;;;8.77;5.47;;;460.80;998.40;;;;;;5016632;28;20037;-77
2021/05/03 09:40:05;;;;;;;7.40;4.78;;;460.90;972.80;;;;;;4998887;28;20061;-76
2021/05/03 09:42:55;;;;;;;9.68;4.25;;;460.90;972.80;;;;;;5016661;28;20030;-77
2021/05/03 09:45:22;;;;;;;6.55;3.70;;;461.00;921.60;;;;;;5016559;28;20391;-68
2021/05/03 09:47:51;;;;;;;5.40;3.72;;;461.10;921.60;;;;;;5016425;28;20349;-73
2021/05/03 09:50:22;;;;;;;12.55;7.03;;;461.20;921.60;;;;;;5016293;28;20089;-76
2021/05/03 09:53:09;;;;;;;11.02;5.05;;;461.30;921.60;;;;;;5016375;28;20400;-69
2021/05/03 09:55:36;;;;;;;9.88;4.30;;;461.50;921.60;;;;;;5016307;28;20025;-69
2021/05/03 09:58:09;;;;;;;8.27;4.60;;;461.60;921.60;;;;;;5016261;28;20029;-72
2021/05/03 10:00:41;;;;;;;8.38;3.65;;;461.70;896.00;;;;;;5016109;28;20022;-77
2021/05/03 10:03:34;;;;;;;6.80;3.50;;;486.40;870.40;;;;;;5016039;28;20025;-68
2021/05/03 10:06:01;;;;;;;8.93;3.65;;;486.50;870.40;;;;;;5015348;28;20510;-70
2021/05/03 10:08:27;;;;;;;12.35;3.70;;;486.60;870.40;;;;;;5015916;28;20033;-70
2021/05/03 10:10:56;;;;;;;25.58;12.48;;;486.70;870.40;;;;;;5015283;28;20040;-64
2021/05/03 10:13:22;;;;;;;17.10;8.30;;;486.70;819.20;;;;;;5016010;28;20101;-68
2021/05/03 10:15:48;;;;;;;5.57;3.78;;;486.80;819.20;;;;;;5016136;28;20104;-69
2021/05/03 10:18:18;;;;;;;9.50;4.40;;;486.80;793.60;;;;;;5015491;28;20018;-69
2021/05/03 10:20:45;;;;;;;9.63;3.80;;;486.80;819.20;;;;;;5015671;28;20109;-69
2021/05/03 10:23:12;;;;;;;6.90;3.80;;;486.80;819.20;;;;;;5013373;28;20479;-65
2021/05/03 10:25:38;;;;;;;4.43;3.15;;;486.80;819.20;;;;;;5015358;28;20054;-69
2021/05/03 10:28:04;;;;;;;6.28;3.40;;;486.80;793.60;;;;;;5015456;28;20033;-70
2021/05/03 10:30:30;;;;;;;6.35;3.28;;;486.80;793.60;;;;;;5014977;28;20034;-65
2021/05/03 10:33:11;;;;;;;68.60;8.45;;;486.80;793.60;;;;;;5014971;28;20033;-68
2021/05/03 10:35:40;;;;;;;9.68;3.13;;;486.80;819.20;;;;;;4999113;28;20105;-67
2021/05/03 10:38:36;;;;;;;4.05;3.35;;;486.80;819.20;;;;;;4995359;28;20023;-67
2021/05/03 10:41:23;;;;;;;4.63;3.70;;;486.80;819.20;;;;;;4995803;28;20026;-67
2021/05/03 10:43:50;;;;;;;6.97;2.90;;;486.80;819.20;;;;;;4995258;28;20473;-67
2021/05/03 10:51:46;;;;;;;6.35;4.07;;;486.90;844.80;;;;;;4995663;28;20113;-65
2021/05/03 10:57:22;;;;;;;5.05;3.03;;;487.20;819.20;;;;;;4996077;28;20042;-64
2021/05/03 10:59:52;;;;;;;2.85;2.33;;;512.10;742.40;;;;;;4994793;28;20494;-67
2021/05/03 11:02:19;;;;;;;3.28;2.60;;;512.50;742.40;;;;;;4995405;28;20034;-68
2021/05/03 11:05:07;;;;;;;8.18;2.65;;;512.70;742.40;;;;;;4963875;28;20046;-71
2021/05/03 11:07:33;;;;;;;5.47;3.20;;;537.60;742.40;;;;;;5002658;28;20022;-69
2021/05/03 11:10:00;;;;;;;4.50;2.70;;;537.60;742.40;;;;;;4999178;28;20407;-65
2021/05/03 11:12:29;;;;;;;4.65;3.03;;;537.60;742.40;;;;;;5000287;28;20033;-67
2021/05/03 11:15:14;;;;;;;9.15;3.45;;;537.60;742.40;;;;;;5004265;28;20038;-69
2021/05/03 11:18:26;;;;;;;7.47;4.35;;;537.60;742.40;;;;;;5000195;28;20019;-69
2021/05/03 11:21:13;;;;;;;11.88;4.30;;;537.60;742.40;;;;;;4914728;29;20036;-67
2021/05/03 11:23:40;;;;;;;7.45;3.10;;;537.60;716.80;;;;;;4914396;28;20060;-69
2021/05/03 11:26:31;;;;;;;6.57;3.13;;;537.60;716.80;;;;;;4914479;29;20024;-69
2021/05/03 11:29:16;;;;;;;5.85;2.90;;;537.60;742.40;;;;;;4898746;29;20028;-67
2021/05/03 11:31:42;;;;;;;6.80;2.75;;;537.60;742.40;;;;;;4893576;29;20477;-69
2021/05/03 11:34:33;;;;;;;6.93;2.90;;;537.60;716.80;;;;;;4915658;29;20111;-69
2021/05/03 11:37:05;;;;;;;11.88;2.97;;;537.60;742.40;;;;;;4915764;29;20040;-69
2021/05/03 11:39:49;;;;;;;15.48;4.35;;;537.60;716.80;;;;;;4915815;29;20504;-68
2021/05/03 11:47:31;;;;;;;5.25;2.50;;;537.60;716.80;;;;;;4915946;29;20054;-66
2021/05/03 11:49:57;;;;;;;4.85;2.75;;;537.70;691.20;;;;;;4914661;29;20585;-83
2021/05/03 11:52:28;;;;;;;4.65;2.80;;;537.70;691.20;;;;;;4915897;29;20024;-68
2021/05/03 11:55:10;;;;;;;6.00;2.97;;;537.90;691.20;;;;;;4915821;29;20482;-68
2021/05/03 11:57:40;;;;;;;3.97;3.22;;;538.10;691.20;;;;;;4970885;28;20042;-67
2021/05/03 12:00:08;;;;;;;5.18;2.70;;;538.20;691.20;;;;;;4994617;28;20050;-69
2021/05/03 12:02:34;;;;;;;8.70;2.83;;;538.40;665.60;;;;;;4994495;28;20519;-67
2021/05/03 12:05:00;;;;;;;6.38;2.38;;;563.20;691.20;;;;;;4994111;28;20134;-67
2021/05/03 12:07:30;;;;;;;4.22;2.45;;;563.40;691.20;;;;;;4994332;28;20026;-67
2021/05/03 12:10:10;;;;;;;4.68;2.35;;;563.40;691.20;;;;;;4994511;28;20038;-67
2021/05/03 12:12:53;;;;;;;7.38;2.80;;;563.30;691.20;;;;;;4994526;28;20028;-66
2021/05/03 12:15:30;;;;;;;6.50;3.00;;;563.20;691.20;;;;;;4994465;28;20108;-64
2021/05/03 12:18:02;;;;;;;3.72;2.60;;;563.20;691.20;;;;;;4994361;28;20050;-67
2021/05/03 12:20:29;;;;;;;3.30;2.50;;;563.30;691.20;;;;;;4994245;28;20468;-66
2021/05/03 12:23:01;;;;;;;7.60;3.08;;;563.30;691.20;;;;;;4994377;28;20097;-67
2021/05/03 12:25:57;;;;;;;4.13;2.72;;;563.40;691.20;;;;;;4994306;28;20022;-67
2021/05/03 12:28:27;;;;;;;4.50;3.30;;;563.40;691.20;;;;;;4994177;28;20375;-68
2021/05/03 12:30:58;;;;;;;2.80;2.22;;;563.20;691.20;;;;;;4994334;28;20034;-67
2021/05/03 12:33:50;;;;;;;4.20;2.80;;;538.50;691.20;;;;;;4994239;28;20472;-67
2021/05/03 12:36:15;;;;;;;4.22;2.97;;;538.30;691.20;;;;;;4993796;28;20050;-67
2021/05/03 12:38:41;;;;;;;5.68;3.30;;;538.10;691.20;;;;;;4994132;28;20030;-66
2021/05/03 12:41:22;;;;;;;5.32;3.90;;;538.00;716.80;;;;;;4994107;28;20101;-68
2021/05/03 12:43:58;;;;;;;5.13;2.97;;;537.90;716.80;;;;;;4994057;28;20038;-65
2021/05/03 12:46:34;;;;;;;3.75;2.80;;;537.80;716.80;;;;;;4993987;28;20479;-65
2021/05/03 12:49:08;;;;;;;5.05;3.90;;;538.00;716.80;;;;;;4993946;28;20030;-67
2021/05/03 12:51:49;;;;;;;;;;;538.10;716.80;;;;;;4994378;28;20026;-66
2021/05/03 12:59:35;;;;;;;4.85;3.00;;;538.30;716.80;;;;;;4994276;28;20531;-66
2021/05/03 13:02:18;;;;;;;3.53;2.65;;;538.40;716.80;;;;;;4996227;28;20459;-66
2021/05/03 13:24:40;;;;;;;15.13;3.85;;;538.50;716.80;;;;;;4900584;29;19914;-79
2021/05/03 13:30:14;;;;;;;11.52;3.60;;;538.50;716.80;;;;;;4899311;29;20084;-65